Portland — WDG2201 — position and weather

sailwx.info

Track history (hours):
 
Tides and Currents Weather Stations Pressure Air Temp Water Temp Dewpoint Dewpoint Depression Visibility Wind Speed Wind Dir Waves Ship Positions

Portland

Owner: Shaver Transportation Company, Portland, OR. More information available from US FCC via Universal Licensing System and Coast Guard Vessel Documentation Center.

Last reported at 2017-Oct-23 06:00 UTC. Time now 2017-Oct-23 06:30 UTC.
Position N 46°05' W 122°56'.

Length 27 m; draft 4 m.

Type: Towing. MMSI: 367315814.

Date/timePositionNaut miles runAvg speedWind from/ knotsBaromVisibWave heightAir tempDewpointWater temp
2017-Oct-23 06:00N 46°05' W 122°56'0 0.0
2017-Oct-23 05:21N 46°05' W 122°56'0 0.0
2017-Oct-23 04:57N 46°05' W 122°56'0 0.0
2017-Oct-23 04:30N 46°05' W 122°56'0 0.0
2017-Oct-23 03:57N 46°05' W 122°56'0 0.0
2017-Oct-23 03:15N 46°05' W 122°56'0 0.0
2017-Oct-23 02:51N 46°05' W 122°56'0 0.0
2017-Oct-23 02:21N 46°05' W 122°56'0 0.0
2017-Oct-23 01:57N 46°05' W 122°56'0 0.0
2017-Oct-23 01:27N 46°05' W 122°56'0 0.0
2017-Oct-23 00:57N 46°05' W 122°56'0 0.0
2017-Oct-23 00:30N 46°05' W 122°56'0 0.0
2017-Oct-23 00:00N 46°05' W 122°56'0 0.0
2017-Oct-22 23:27N 46°05' W 122°56'0 0.0
2017-Oct-22 23:00N 46°05' W 122°56'0 0.0
2017-Oct-22 22:30N 46°05' W 122°56'0 0.0
2017-Oct-22 22:00N 46°05' W 122°56'0 0.0
2017-Oct-22 21:30N 46°05' W 122°56'0 0.0
2017-Oct-22 20:49N 46°05' W 122°56'310.8
2017-Oct-22 20:31N 46°03' W 122°53'4 7.7
2017-Oct-22 19:58N 45°59' W 122°50'0 0.0
2017-Oct-22 19:25N 45°59' W 122°50'0 0.0
2017-Oct-22 18:58N 45°59' W 122°50'0 0.0
2017-Oct-22 18:31N 45°59' W 122°50'2 3.8
2017-Oct-22 18:01N 46°01' W 122°51'510.1
2017-Oct-22 17:30N 46°05' W 122°55'1 1.6
2017-Oct-22 16:58N 46°05' W 122°56'0 0.0
2017-Oct-22 16:28N 46°05' W 122°56'0 0.0
2017-Oct-22 15:55N 46°05' W 122°56'0 0.0
2017-Oct-22 15:28N 46°05' W 122°56'0 0.0
2017-Oct-22 14:58N 46°05' W 122°56'0 0.0
2017-Oct-22 14:16N 46°05' W 122°56'0 0.0
2017-Oct-22 13:58N 46°05' W 122°56'0 0.0
2017-Oct-22 13:28N 46°05' W 122°56'0 0.0
2017-Oct-22 12:58N 46°05' W 122°56'0 0.0
2017-Oct-22 12:28N 46°05' W 122°56'0 0.0
2017-Oct-22 11:58N 46°05' W 122°56'0 0.0
2017-Oct-22 11:28N 46°05' W 122°56'0 0.0
2017-Oct-22 10:58N 46°05' W 122°56'0 0.0
2017-Oct-22 10:28N 46°05' W 122°56'0 0.0
2017-Oct-22 09:58N 46°05' W 122°56'0 0.0
2017-Oct-22 09:28N 46°05' W 122°56'0 0.0
2017-Oct-22 08:52N 46°05' W 122°56'0 0.0
2017-Oct-22 08:28N 46°05' W 122°56'0 0.0
2017-Oct-22 07:46N 46°05' W 122°56'0 0.0
2017-Oct-22 07:28N 46°05' W 122°56'0 0.0
2017-Oct-22 06:46N 46°05' W 122°56'0 0.0
2017-Oct-22 06:28N 46°05' W 122°56'0 0.0
2017-Oct-22 05:52N 46°05' W 122°56'0 0.0
2017-Oct-22 05:28N 46°05' W 122°56'0 0.0
2017-Oct-22 04:52N 46°05' W 122°56'0 0.0
2017-Oct-22 04:28N 46°05' W 122°56'0 0.0
2017-Oct-22 03:58N 46°05' W 122°56'0 0.0
2017-Oct-22 03:07N 46°05' W 122°56'0 0.0
2017-Oct-22 02:49N 46°05' W 122°56'1 1.7
2017-Oct-22 02:30N 46°06' W 122°56'0 0.0
2017-Oct-22 02:00N 46°06' W 122°56'1 0.9
2017-Oct-22 01:28N 46°06' W 122°57'0 0.9
2017-Oct-22 01:01N 46°06' W 122°56'1 1.1
2017-Oct-22 00:30N 46°06' W 122°57'1 1.9
2017-Oct-22 00:01N 46°06' W 122°56'0 0.2
2017-Oct-21 23:31N 46°05' W 122°56'0 0.0
2017-Oct-21 23:01N 46°05' W 122°56'0 0.0
2017-Oct-21 22:30N 46°05' W 122°56'0 0.0
2017-Oct-21 21:54N 46°05' W 122°56'0 0.0
2017-Oct-21 21:18N 46°05' W 122°56'0 0.0
2017-Oct-21 21:00N 46°05' W 122°56'0 0.0
2017-Oct-21 20:09N 46°05' W 122°56'0 0.0
2017-Oct-21 19:57N 46°05' W 122°56'0 0.0
2017-Oct-21 19:30N 46°05' W 122°56'0 0.0
2017-Oct-21 18:54N 46°05' W 122°56'0 0.0
2017-Oct-21 18:30N 46°05' W 122°56'0 0.0
2017-Oct-21 18:00N 46°05' W 122°56'0 0.0
2017-Oct-21 17:30N 46°05' W 122°56'0 0.0
2017-Oct-21 17:00N 46°05' W 122°56'0 0.0
2017-Oct-21 16:30N 46°05' W 122°56'0 0.0
2017-Oct-21 16:00N 46°05' W 122°56'0 0.0
2017-Oct-21 15:30N 46°05' W 122°56'0 0.0
2017-Oct-21 14:54N 46°05' W 122°56'0 0.0
2017-Oct-21 13:45N 46°05' W 122°56'0 0.0
2017-Oct-21 13:30N 46°05' W 122°56'0 0.0
2017-Oct-21 13:00N 46°05' W 122°56'0 0.0
2017-Oct-21 12:30N 46°05' W 122°56'0 0.0
2017-Oct-21 11:57N 46°05' W 122°56'0 0.0
2017-Oct-21 11:30N 46°05' W 122°56'0 0.0
2017-Oct-21 10:48N 46°05' W 122°56'0 0.0
2017-Oct-21 10:27N 46°05' W 122°56'0 0.0
2017-Oct-21 09:51N 46°05' W 122°56'0 0.0
2017-Oct-21 09:21N 46°05' W 122°56'0 0.0
2017-Oct-21 08:57N 46°05' W 122°56'0 0.0
2017-Oct-21 08:18N 46°05' W 122°56'0 0.0
2017-Oct-21 08:00N 46°05' W 122°56'0 0.0
2017-Oct-21 07:24N 46°05' W 122°56'0 0.0
2017-Oct-21 06:57N 46°05' W 122°56'0 0.0
2017-Oct-21 06:24N 46°05' W 122°56'0 0.0
2017-Oct-21 06:00N 46°05' W 122°56'0 0.0
2017-Oct-21 05:30N 46°05' W 122°56'0 0.0
2017-Oct-21 04:57N 46°05' W 122°56'0 0.0
2017-Oct-21 04:30N 46°05' W 122°56'0 0.0
2017-Oct-21 04:00N 46°05' W 122°56'0 0.0
2017-Oct-21 03:27N 46°05' W 122°56'0 0.0
2017-Oct-21 03:00N 46°05' W 122°56'0 0.0
2017-Oct-21 02:30N 46°05' W 122°56'0 0.0
2017-Oct-21 01:54N 46°05' W 122°56'0 0.0
2017-Oct-21 01:27N 46°05' W 122°56'0 0.0
2017-Oct-21 01:00N 46°05' W 122°56'0 0.0
2017-Oct-21 00:30N 46°05' W 122°56'0 0.0
2017-Oct-20 23:15N 46°05' W 122°56'0 0.1
2017-Oct-20 23:00N 46°05' W 122°56'4 9.0
2017-Oct-20 22:31N 46°02' W 122°52'0 0.2
2017-Oct-20 22:00N 46°02' W 122°53'0 0.1
2017-Oct-20 21:30N 46°02' W 122°53'0 0.0
2017-Oct-20 21:00N 46°02' W 122°53'0 0.0
2017-Oct-20 20:30N 46°02' W 122°53'0 0.0
2017-Oct-20 20:01N 46°02' W 122°53'0 0.0
2017-Oct-20 19:26N 46°02' W 122°53'0 0.0
2017-Oct-20 19:00N 46°02' W 122°53'0 0.0
2017-Oct-20 18:30N 46°02' W 122°53'0 0.0
2017-Oct-20 18:00N 46°02' W 122°53'0 0.0
2017-Oct-20 17:30N 46°02' W 122°53'0 0.1
2017-Oct-20 17:00N 46°02' W 122°53'0 0.0
2017-Oct-20 16:30N 46°02' W 122°53'0 0.0
2017-Oct-20 16:00N 46°02' W 122°53'0 0.0
2017-Oct-20 15:30N 46°02' W 122°53'0 0.0
2017-Oct-20 15:01N 46°02' W 122°53'0 0.0
2017-Oct-20 14:00N 46°02' W 122°53'3 5.9
2017-Oct-20 13:30N 45°59' W 122°51'0 0.8
2017-Oct-20 13:00N 45°59' W 122°50'0 0.0
2017-Oct-20 12:30N 45°59' W 122°50'1 2.4
2017-Oct-20 12:00N 45°60' W 122°51'1 1.4
2017-Oct-20 11:30N 46°01' W 122°51'0 0.1
2017-Oct-20 11:00N 46°01' W 122°51'0 0.2
2017-Oct-20 10:31N 46°01' W 122°51'0 0.4
2017-Oct-20 10:00N 46°01' W 122°52'1 2.4
2017-Oct-20 09:30N 46°02' W 122°53'0 0.0
2017-Oct-20 09:00N 46°02' W 122°53'0 0.1
2017-Oct-20 08:30N 46°02' W 122°53'0 0.0
2017-Oct-20 08:00N 46°02' W 122°53'0 0.0
2017-Oct-20 07:30N 46°02' W 122°53'0 0.0
2017-Oct-20 07:00N 46°02' W 122°53'0 0.0
2017-Oct-20 06:30N 46°02' W 122°53'0 0.0
2017-Oct-20 06:00N 46°02' W 122°53'0 0.0
2017-Oct-20 05:30N 46°02' W 122°53'0 0.0
2017-Oct-20 05:00N 46°02' W 122°53'0 0.1
2017-Oct-20 04:30N 46°02' W 122°53'0 0.0
2017-Oct-20 04:00N 46°02' W 122°53'0 0.1
2017-Oct-20 03:30N 46°02' W 122°53'0 0.1
2017-Oct-20 03:00N 46°02' W 122°53'2 4.1
2017-Oct-20 02:30N 46°04' W 122°53'3 6.3
2017-Oct-20 02:00N 46°06' W 122°56'0 0.0
2017-Oct-20 01:31N 46°06' W 122°56'1 2.4
2017-Oct-20 01:00N 46°06' W 122°58'1 2.3
2017-Oct-20 00:31N 46°06' W 122°57'4 7.5
2017-Oct-20 00:00N 46°03' W 122°53'1 2.8
2017-Oct-19 23:30N 46°02' W 122°53'0 0.2
2017-Oct-19 23:01N 46°02' W 122°53'1 1.3
2017-Oct-19 22:30N 46°02' W 122°53'4 6.8
2017-Oct-19 21:59N 46°05' W 122°55'1 1.9
2017-Oct-19 21:30N 46°06' W 122°56'0 0.8
2017-Oct-19 21:00N 46°06' W 122°56'0 0.4
2017-Oct-19 20:24N 46°05' W 122°56'0 0.0
2017-Oct-19 20:00N 46°05' W 122°56'0 0.0
2017-Oct-19 19:15N 46°05' W 122°56'0 0.0
2017-Oct-19 19:00N 46°05' W 122°56'0 0.0
2017-Oct-19 18:30N 46°05' W 122°56'0 0.0
2017-Oct-19 17:54N 46°05' W 122°56'0 0.0
2017-Oct-19 17:30N 46°05' W 122°56'0 0.0
2017-Oct-19 17:00N 46°05' W 122°56'0 0.0
2017-Oct-19 16:24N 46°05' W 122°56'0 0.0
2017-Oct-19 15:54N 46°05' W 122°56'0 0.0
2017-Oct-19 15:30N 46°05' W 122°56'0 0.0
2017-Oct-19 15:00N 46°05' W 122°56'0 0.0
2017-Oct-19 14:27N 46°05' W 122°56'0 0.0
2017-Oct-19 13:48N 46°05' W 122°56'0 0.0
2017-Oct-19 13:30N 46°05' W 122°56'0 0.0
2017-Oct-19 13:00N 46°05' W 122°56'0 0.0
2017-Oct-19 12:30N 46°05' W 122°56'0 0.0
2017-Oct-19 12:00N 46°05' W 122°56'0 0.0
2017-Oct-19 11:30N 46°05' W 122°56'0 0.0
2017-Oct-19 10:54N 46°05' W 122°56'0 0.0
2017-Oct-19 10:27N 46°05' W 122°56'0 0.0
2017-Oct-19 09:57N 46°05' W 122°56'0 0.0
2017-Oct-19 09:24N 46°05' W 122°56'0 0.0
2017-Oct-19 09:00N 46°05' W 122°56'0 0.0
2017-Oct-19 08:27N 46°05' W 122°56'0 0.0
2017-Oct-19 08:00N 46°05' W 122°56'0 0.0
2017-Oct-19 07:27N 46°05' W 122°56'0 0.0
2017-Oct-19 06:57N 46°05' W 122°56'0 0.0
2017-Oct-19 06:30N 46°05' W 122°56'0 0.0
2017-Oct-19 06:00N 46°05' W 122°56'0 0.0
2017-Oct-19 05:30N 46°05' W 122°56'0 0.0
2017-Oct-19 04:45N 46°05' W 122°56'0 0.0
2017-Oct-19 04:30N 46°05' W 122°56'2 4.9
2017-Oct-19 04:01N 46°04' W 122°53'2 4.8
2017-Oct-19 03:31N 46°05' W 122°56'0 0.0
2017-Oct-19 03:00N 46°05' W 122°56'0 0.0
2017-Oct-19 02:30N 46°05' W 122°56'0 0.0
2017-Oct-19 01:59N 46°05' W 122°56'0 0.0
2017-Oct-19 01:30N 46°05' W 122°56'0 0.0
2017-Oct-19 01:00N 46°05' W 122°56'0 0.0
2017-Oct-19 00:31N 46°05' W 122°56'0 0.0
2017-Oct-19 00:00N 46°05' W 122°56'1 2.2
2017-Oct-18 23:30N 46°06' W 122°57'0 0.1
2017-Oct-18 23:00N 46°06' W 122°57'1 2.8
2017-Oct-18 22:31N 46°07' W 122°59'0 0.3
2017-Oct-18 22:01N 46°07' W 122°59'2 4.0
2017-Oct-18 21:26N 46°06' W 122°56'0 0.6
2017-Oct-18 20:59N 46°05' W 122°56'0 0.0
2017-Oct-18 20:29N 46°05' W 122°56'0 0.0
2017-Oct-18 19:59N 46°05' W 122°56'0 0.0
2017-Oct-18 19:26N 46°05' W 122°56'0 0.0
2017-Oct-18 18:59N 46°05' W 122°56'0 0.0
2017-Oct-18 18:29N 46°05' W 122°56'0 0.0
2017-Oct-18 17:59N 46°05' W 122°56'0 0.0
2017-Oct-18 17:29N 46°05' W 122°56'0 0.0
2017-Oct-18 16:59N 46°05' W 122°56'0 0.0
2017-Oct-18 16:23N 46°05' W 122°56'0 0.0
2017-Oct-18 15:50N 46°05' W 122°56'0 0.0
2017-Oct-18 15:23N 46°05' W 122°56'0 0.0
2017-Oct-18 14:59N 46°05' W 122°56'0 0.0
2017-Oct-18 13:56N 46°05' W 122°56'0 0.0
2017-Oct-18 13:30N 46°05' W 122°56'6 7.8
2017-Oct-18 12:45N 46°09' W 123°03'2 9.3
2017-Oct-18 12:30N 46°10' W 123°05'4 8.8
2017-Oct-18 12:00N 46°11' W 123°12'5 9.5
2017-Oct-18 11:30N 46°09' W 123°18'5 9.1
2017-Oct-18 11:00N 46°10' W 123°24'4 8.9
2017-Oct-18 10:31N 46°14' W 123°26'4 8.2
2017-Oct-18 10:01N 46°16' W 123°31'510.3
2017-Oct-18 09:31N 46°16' W 123°38'710.0
2017-Oct-18 08:48N 46°13' W 123°47'3 6.7
2017-Oct-18 08:18N 46°11' W 123°52'0 0.3
2017-Oct-18 08:00N 46°11' W 123°52'0 0.1
2017-Oct-18 07:30N 46°11' W 123°52'0 0.1
2017-Oct-18 07:00N 46°11' W 123°52'0 0.0
2017-Oct-18 06:31N 46°11' W 123°52'1 1.8
2017-Oct-18 05:51N 46°12' W 123°50'310.0
2017-Oct-18 05:31N 46°13' W 123°46'510.8
2017-Oct-18 05:01N 46°16' W 123°39'611.9
2017-Oct-18 04:30N 46°16' W 123°30'611.0
2017-Oct-18 04:00N 46°12' W 123°26'612.5
2017-Oct-18 03:30N 46°09' W 123°18'715.0
2017-Oct-18 03:01N 46°11' W 123°08'815.1
2017-Oct-18 02:30N 46°07' W 122°59'612.9
2017-Oct-18 02:01N 46°02' W 122°53'4 7.0
2017-Oct-18 01:30N 45°59' W 122°50'0 0.6
2017-Oct-18 01:00N 45°59' W 122°50'2 3.2
2017-Oct-18 00:30N 46°01' W 122°51'0 0.3
2017-Oct-18 00:01N 46°01' W 122°51'5 9.8
2017-Oct-17 23:30N 46°05' W 122°55'1 1.8
2017-Oct-17 23:00N 46°05' W 122°56'0 0.0
2017-Oct-17 22:30N 46°05' W 122°56'0 0.0
2017-Oct-17 22:00N 46°05' W 122°56'0 0.0
2017-Oct-17 21:30N 46°05' W 122°56'0 0.0
2017-Oct-17 21:00N 46°05' W 122°56'0 0.0
2017-Oct-17 20:30N 46°05' W 122°56'1 2.7
2017-Oct-17 20:00N 46°06' W 122°57'1 1.5
2017-Oct-17 19:30N 46°06' W 122°56'0 0.4
2017-Oct-17 19:00N 46°06' W 122°57'2 3.0
2017-Oct-17 18:30N 46°07' W 122°58'0 0.4
2017-Oct-17 18:01N 46°06' W 122°58'2 3.7
2017-Oct-17 17:30N 46°05' W 122°56'0 0.0
2017-Oct-17 17:00N 46°05' W 122°56'0 0.0
2017-Oct-17 16:31N 46°05' W 122°56'0 0.0
2017-Oct-17 16:00N 46°05' W 122°56'0 0.0
2017-Oct-17 15:31N 46°05' W 122°56'0 0.0
2017-Oct-17 15:00N 46°05' W 122°56'0 0.0
2017-Oct-17 14:30N 46°05' W 122°56'0 0.0
2017-Oct-17 14:00N 46°05' W 122°56'0 0.0
2017-Oct-17 13:30N 46°05' W 122°56'0 0.0
2017-Oct-17 13:00N 46°05' W 122°56'0 0.0
2017-Oct-17 12:30N 46°05' W 122°56'0 0.0
2017-Oct-17 12:00N 46°05' W 122°56'0 0.0
2017-Oct-17 11:31N 46°05' W 122°56'0 0.0
2017-Oct-17 11:00N 46°05' W 122°56'0 0.0
2017-Oct-17 10:29N 46°05' W 122°56'0 0.0
2017-Oct-17 10:00N 46°05' W 122°56'0 0.0
2017-Oct-17 09:30N 46°05' W 122°56'0 0.0
2017-Oct-17 09:00N 46°05' W 122°56'0 0.0
2017-Oct-17 08:31N 46°05' W 122°56'0 0.0
2017-Oct-17 08:00N 46°05' W 122°56'0 0.0
2017-Oct-17 07:30N 46°05' W 122°56'0 0.0
2017-Oct-17 07:01N 46°05' W 122°56'0 0.0
2017-Oct-17 06:30N 46°05' W 122°56'0 0.0
2017-Oct-17 06:01N 46°05' W 122°56'0 0.0
2017-Oct-17 05:30N 46°05' W 122°56'0 0.0
2017-Oct-17 05:00N 46°05' W 122°56'0 0.0
2017-Oct-17 04:30N 46°05' W 122°56'0 0.0
2017-Oct-17 04:00N 46°05' W 122°56'0 0.0
2017-Oct-17 03:30N 46°05' W 122°56'0 0.0
2017-Oct-17 03:01N 46°05' W 122°56'0 0.0
2017-Oct-17 02:30N 46°05' W 122°56'0 0.0
2017-Oct-17 02:01N 46°05' W 122°56'0 0.0
2017-Oct-17 01:30N 46°05' W 122°56'0 0.0
2017-Oct-17 01:00N 46°05' W 122°56'0 0.0
2017-Oct-17 00:30N 46°05' W 122°56'0 0.0
2017-Oct-17 00:01N 46°05' W 122°56'0 0.0
2017-Oct-16 23:31N 46°05' W 122°56'0 0.0
2017-Oct-16 23:00N 46°05' W 122°56'0 0.0
2017-Oct-16 22:30N 46°05' W 122°56'0 0.0
2017-Oct-16 22:00N 46°05' W 122°56'0 0.0
2017-Oct-16 21:30N 46°05' W 122°56'0 0.0
2017-Oct-16 21:00N 46°05' W 122°56'0 0.0
2017-Oct-16 20:30N 46°05' W 122°56'0 0.0
2017-Oct-16 20:00N 46°05' W 122°56'0 0.0
2017-Oct-16 19:30N 46°05' W 122°56'0 0.0
2017-Oct-16 19:00N 46°05' W 122°56'0 0.0
2017-Oct-16 18:31N 46°05' W 122°56'0 0.0
2017-Oct-16 18:01N 46°05' W 122°56'0 0.0
2017-Oct-16 17:30N 46°05' W 122°56'0 0.0
2017-Oct-16 17:01N 46°05' W 122°56'0 0.0
2017-Oct-16 16:31N 46°05' W 122°56'0 0.0
2017-Oct-16 16:00N 46°05' W 122°56'0 0.0
2017-Oct-16 15:30N 46°05' W 122°56'0 0.0
2017-Oct-16 15:01N 46°05' W 122°56'0 0.0
2017-Oct-16 14:30N 46°05' W 122°56'0 0.0
2017-Oct-16 13:30N 46°05' W 122°56'0 0.0
2017-Oct-16 13:00N 46°05' W 122°56'0 0.0
2017-Oct-16 12:30N 46°05' W 122°56'0 0.0
2017-Oct-16 12:00N 46°05' W 122°56'0 0.0
2017-Oct-16 11:30N 46°05' W 122°56'0 0.0
2017-Oct-16 11:01N 46°05' W 122°56'0 0.0
2017-Oct-16 10:30N 46°05' W 122°56'0 0.0
2017-Oct-16 10:00N 46°05' W 122°56'0 0.0
2017-Oct-16 09:31N 46°05' W 122°56'0 0.0
2017-Oct-16 09:00N 46°05' W 122°56'0 0.0
2017-Oct-16 08:30N 46°05' W 122°56'0 0.0
2017-Oct-16 08:00N 46°05' W 122°56'0 0.0
2017-Oct-16 07:22N 46°05' W 122°56'0 0.0
2017-Oct-16 07:00N 46°05' W 122°56'0 0.0
2017-Oct-16 06:30N 46°05' W 122°56'0 0.0
2017-Oct-16 06:00N 46°05' W 122°56'0 0.0
2017-Oct-16 05:30N 46°05' W 122°56'0 0.0
2017-Oct-16 05:00N 46°05' W 122°56'0 0.0
2017-Oct-16 04:30N 46°05' W 122°56'0 0.0
2017-Oct-16 04:00N 46°05' W 122°56'0 0.0
2017-Oct-16 03:30N 46°05' W 122°56'0 0.0
2017-Oct-16 03:00N 46°05' W 122°56'0 0.3
2017-Oct-16 02:31N 46°06' W 122°56'0 0.7
2017-Oct-16 02:01N 46°06' W 122°56'0 0.8
2017-Oct-16 01:30N 46°06' W 122°57'1 1.6
2017-Oct-16 01:00N 46°06' W 122°58'2 3.1
2017-Oct-16 00:30N 46°05' W 122°56'0 0.0
2017-Oct-16 00:00N 46°05' W 122°56'0 0.0
2017-Oct-15 23:30N 46°05' W 122°56'0 0.0
2017-Oct-15 23:00N 46°05' W 122°56'1 2.9
2017-Oct-15 22:30N 46°06' W 122°58'0 0.3
2017-Oct-15 22:00N 46°06' W 122°58'2 3.3
2017-Oct-15 21:30N 46°05' W 122°56'0 0.0
2017-Oct-15 21:01N 46°05' W 122°56'0 0.0
2017-Oct-15 20:30N 46°05' W 122°56'1 2.7
2017-Oct-15 20:00N 46°06' W 122°57'0 0.3
2017-Oct-15 19:24N 46°06' W 122°58'1 3.3
2017-Oct-15 18:58N 46°05' W 122°56'0 0.0
2017-Oct-15 18:16N 46°05' W 122°56'0 0.0
2017-Oct-15 17:58N 46°05' W 122°56'0 0.0
2017-Oct-15 17:28N 46°05' W 122°56'0 0.0
2017-Oct-15 16:58N 46°05' W 122°56'0 0.0
2017-Oct-15 16:28N 46°05' W 122°56'0 0.0
2017-Oct-15 15:55N 46°05' W 122°56'0 0.0
2017-Oct-15 15:28N 46°05' W 122°56'0 0.0
2017-Oct-15 14:58N 46°05' W 122°56'0 0.0
2017-Oct-15 13:43N 46°05' W 122°56'0 0.0
2017-Oct-15 13:28N 46°05' W 122°56'0 0.0
2017-Oct-15 12:58N 46°05' W 122°56'0 0.0
2017-Oct-15 12:28N 46°05' W 122°56'0 0.0
2017-Oct-15 11:58N 46°05' W 122°56'0 0.0
2017-Oct-15 11:22N 46°05' W 122°56'0 0.0
2017-Oct-15 10:58N 46°05' W 122°56'0 0.0
2017-Oct-15 10:22N 46°05' W 122°56'0 0.0
2017-Oct-15 09:52N 46°05' W 122°56'0 0.0
2017-Oct-15 09:28N 46°05' W 122°56'0 0.0
2017-Oct-15 08:52N 46°05' W 122°56'0 0.0
2017-Oct-15 08:28N 46°05' W 122°56'0 0.0
2017-Oct-15 07:49N 46°05' W 122°56'0 0.0
2017-Oct-15 07:25N 46°05' W 122°56'0 0.0
2017-Oct-15 06:58N 46°05' W 122°56'0 0.0
2017-Oct-15 06:28N 46°05' W 122°56'0 0.0
2017-Oct-15 05:28N 46°05' W 122°56'0 0.0
2017-Oct-15 04:58N 46°05' W 122°56'0 0.0
2017-Oct-15 04:31N 46°05' W 122°56'0 0.0
2017-Oct-15 03:55N 46°05' W 122°56'0 0.0
2017-Oct-15 03:28N 46°05' W 122°56'0 0.0
2017-Oct-15 02:58N 46°05' W 122°56'0 0.0
2017-Oct-15 02:28N 46°05' W 122°56'0 0.0
2017-Oct-15 01:40N 46°05' W 122°56'0 0.0
2017-Oct-15 01:19N 46°05' W 122°56'0 0.0
2017-Oct-15 00:58N 46°05' W 122°56'0 0.0
2017-Oct-15 00:22N 46°05' W 122°56'0 0.0
2017-Oct-14 23:58N 46°05' W 122°56'0 0.0
2017-Oct-14 23:25N 46°05' W 122°56'0 0.0
2017-Oct-14 22:49N 46°05' W 122°56'0 0.0
2017-Oct-14 22:31N 46°05' W 122°56'0 0.0
2017-Oct-14 21:58N 46°05' W 122°56'0 0.0
2017-Oct-14 21:19N 46°05' W 122°56'0 0.0
2017-Oct-14 20:58N 46°05' W 122°56'0 0.0
2017-Oct-14 20:25N 46°05' W 122°56'0 0.0
2017-Oct-14 19:58N 46°05' W 122°56'0 0.0
2017-Oct-14 19:28N 46°05' W 122°56'0 0.0
2017-Oct-14 18:58N 46°05' W 122°56'0 0.0
2017-Oct-14 18:28N 46°05' W 122°56'0 0.0
2017-Oct-14 17:58N 46°05' W 122°56'0 0.0
2017-Oct-14 17:28N 46°05' W 122°56'0 0.0
2017-Oct-14 16:58N 46°05' W 122°56'0 0.0
2017-Oct-14 16:28N 46°05' W 122°56'0 0.0
2017-Oct-14 16:01N 46°05' W 122°56'0 0.0
2017-Oct-14 15:31N 46°05' W 122°56'0 0.0
2017-Oct-14 15:01N 46°05' W 122°56'0 0.0
2017-Oct-14 14:27N 46°05' W 122°56'1 1.5
2017-Oct-14 14:00N 46°06' W 122°56'0 0.6
2017-Oct-14 13:30N 46°06' W 122°57'2 4.2
2017-Oct-14 13:00N 46°07' W 122°59'3 5.3
2017-Oct-14 12:30N 46°06' W 122°56'0 0.7
2017-Oct-14 11:58N 46°05' W 122°56'0 0.0
2017-Oct-14 11:10N 46°05' W 122°56'0 0.0
2017-Oct-14 10:58N 46°05' W 122°56'0 0.0
2017-Oct-14 10:28N 46°05' W 122°56'0 0.0
2017-Oct-14 09:58N 46°05' W 122°56'0 0.0
2017-Oct-14 09:28N 46°05' W 122°56'0 0.0
2017-Oct-14 08:52N 46°05' W 122°56'0 0.0
2017-Oct-14 08:28N 46°05' W 122°56'0 0.0
2017-Oct-14 07:58N 46°05' W 122°56'0 0.0
2017-Oct-14 07:25N 46°05' W 122°56'0 0.0
2017-Oct-14 06:52N 46°05' W 122°56'0 0.0
2017-Oct-14 06:28N 46°05' W 122°56'0 0.0
2017-Oct-14 05:58N 46°05' W 122°56'0 0.0
2017-Oct-14 05:28N 46°05' W 122°56'0 0.0
2017-Oct-14 04:58N 46°05' W 122°56'0 0.0
2017-Oct-14 04:25N 46°05' W 122°56'0 0.0
2017-Oct-14 03:58N 46°05' W 122°56'0 0.0
2017-Oct-14 03:10N 46°05' W 122°56'0 0.0
2017-Oct-14 02:55N 46°05' W 122°56'0 0.0
2017-Oct-14 02:28N 46°05' W 122°56'0 0.0
2017-Oct-14 01:46N 46°05' W 122°56'0 0.0
2017-Oct-14 01:25N 46°05' W 122°56'0 0.0
2017-Oct-14 00:52N 46°05' W 122°56'0 0.0
2017-Oct-14 00:28N 46°05' W 122°56'0 0.0
2017-Oct-13 23:58N 46°05' W 122°56'0 0.0
2017-Oct-13 23:28N 46°05' W 122°56'0 0.0
2017-Oct-13 22:58N 46°05' W 122°56'0 0.0
2017-Oct-13 22:28N 46°05' W 122°56'0 0.0
2017-Oct-13 21:55N 46°05' W 122°56'0 0.0
2017-Oct-13 21:13N 46°05' W 122°56'0 0.0
2017-Oct-13 20:58N 46°05' W 122°56'0 0.0
2017-Oct-13 20:30N 46°05' W 122°56'0 0.8
2017-Oct-13 20:00N 46°05' W 122°55'3 5.7
2017-Oct-13 19:30N 46°03' W 122°53'4 8.8
2017-Oct-13 19:01N 45°59' W 122°50'0 0.2
2017-Oct-13 18:21N 45°59' W 122°50'0 0.1
2017-Oct-13 18:00N 45°59' W 122°50'5 5.8
2017-Oct-13 17:13N 46°03' W 122°53'2 9.3
2017-Oct-13 17:00N 46°05' W 122°54'1 2.6
2017-Oct-13 16:28N 46°05' W 122°56'0 0.0
2017-Oct-13 15:58N 46°05' W 122°56'0 0.0
2017-Oct-13 15:25N 46°05' W 122°56'0 0.0
2017-Oct-13 14:55N 46°05' W 122°56'0 0.0
2017-Oct-13 14:28N 46°05' W 122°56'0 0.0
2017-Oct-13 13:46N 46°05' W 122°56'1 2.0
2017-Oct-13 13:30N 46°06' W 122°56'0 0.1
2017-Oct-13 12:50N 46°06' W 122°56'1 1.8
2017-Oct-13 12:31N 46°06' W 122°57'1 1.8
2017-Oct-13 11:55N 46°05' W 122°56'0 0.0
2017-Oct-13 11:25N 46°05' W 122°56'0 0.0
2017-Oct-13 10:58N 46°05' W 122°56'0 0.0
2017-Oct-13 10:28N 46°05' W 122°56'0 0.0
2017-Oct-13 09:49N 46°05' W 122°56'0 0.0
2017-Oct-13 09:01N 46°05' W 122°56'0 0.0
2017-Oct-13 08:58N 46°05' W 122°56'0 0.0
2017-Oct-13 08:13N 46°05' W 122°56'0 0.0
2017-Oct-13 07:49N 46°05' W 122°56'0 0.0
2017-Oct-13 07:28N 46°05' W 122°56'0 0.0
2017-Oct-13 06:58N 46°05' W 122°56'0 0.0
2017-Oct-13 06:28N 46°05' W 122°56'  
Track history (hours):
 
Tides and Currents Weather Stations Pressure Air Temp Water Temp Dewpoint Dewpoint Depression Visibility Wind Speed Wind Dir Waves Ship Positions

Portland

Owner: Shaver Transportation Company, Portland, OR. More information available from US FCC via Universal Licensing System and Coast Guard Vessel Documentation Center.

Last reported at 2017-Oct-23 06:00 UTC. Time now 2017-Oct-23 06:30 UTC.
Position N 46°05' W 122°56'.

Length 27 m; draft 4 m.

Type: Towing. MMSI: 367315814.

Date/timePositionNaut miles runAvg speedWind from/ knotsBaromVisibWave heightAir tempDewpointWater temp
2017-Oct-23 06:00N 46°05' W 122°56'0 0.0
2017-Oct-23 05:21N 46°05' W 122°56'0 0.0
2017-Oct-23 04:57N 46°05' W 122°56'0 0.0
2017-Oct-23 04:30N 46°05' W 122°56'0 0.0
2017-Oct-23 03:57N 46°05' W 122°56'0 0.0
2017-Oct-23 03:15N 46°05' W 122°56'0 0.0
2017-Oct-23 02:51N 46°05' W 122°56'0 0.0
2017-Oct-23 02:21N 46°05' W 122°56'0 0.0
2017-Oct-23 01:57N 46°05' W 122°56'0 0.0
2017-Oct-23 01:27N 46°05' W 122°56'0 0.0
2017-Oct-23 00:57N 46°05' W 122°56'0 0.0
2017-Oct-23 00:30N 46°05' W 122°56'0 0.0
2017-Oct-23 00:00N 46°05' W 122°56'0 0.0
2017-Oct-22 23:27N 46°05' W 122°56'0 0.0
2017-Oct-22 23:00N 46°05' W 122°56'0 0.0
2017-Oct-22 22:30N 46°05' W 122°56'0 0.0
2017-Oct-22 22:00N 46°05' W 122°56'0 0.0
2017-Oct-22 21:30N 46°05' W 122°56'0 0.0
2017-Oct-22 20:49N 46°05' W 122°56'310.8
2017-Oct-22 20:31N 46°03' W 122°53'4 7.7
2017-Oct-22 19:58N 45°59' W 122°50'0 0.0
2017-Oct-22 19:25N 45°59' W 122°50'0 0.0
2017-Oct-22 18:58N 45°59' W 122°50'0 0.0
2017-Oct-22 18:31N 45°59' W 122°50'2 3.8
2017-Oct-22 18:01N 46°01' W 122°51'510.1
2017-Oct-22 17:30N 46°05' W 122°55'1 1.6
2017-Oct-22 16:58N 46°05' W 122°56'0 0.0
2017-Oct-22 16:28N 46°05' W 122°56'0 0.0
2017-Oct-22 15:55N 46°05' W 122°56'0 0.0
2017-Oct-22 15:28N 46°05' W 122°56'0 0.0
2017-Oct-22 14:58N 46°05' W 122°56'0 0.0
2017-Oct-22 14:16N 46°05' W 122°56'0 0.0
2017-Oct-22 13:58N 46°05' W 122°56'0 0.0
2017-Oct-22 13:28N 46°05' W 122°56'0 0.0
2017-Oct-22 12:58N 46°05' W 122°56'0 0.0
2017-Oct-22 12:28N 46°05' W 122°56'0 0.0
2017-Oct-22 11:58N 46°05' W 122°56'0 0.0
2017-Oct-22 11:28N 46°05' W 122°56'0 0.0
2017-Oct-22 10:58N 46°05' W 122°56'0 0.0
2017-Oct-22 10:28N 46°05' W 122°56'0 0.0
2017-Oct-22 09:58N 46°05' W 122°56'0 0.0
2017-Oct-22 09:28N 46°05' W 122°56'0 0.0
2017-Oct-22 08:52N 46°05' W 122°56'0 0.0
2017-Oct-22 08:28N 46°05' W 122°56'0 0.0
2017-Oct-22 07:46N 46°05' W 122°56'0 0.0
2017-Oct-22 07:28N 46°05' W 122°56'0 0.0
2017-Oct-22 06:46N 46°05' W 122°56'0 0.0
2017-Oct-22 06:28N 46°05' W 122°56'0 0.0
2017-Oct-22 05:52N 46°05' W 122°56'0 0.0
2017-Oct-22 05:28N 46°05' W 122°56'0 0.0
2017-Oct-22 04:52N 46°05' W 122°56'0 0.0
2017-Oct-22 04:28N 46°05' W 122°56'0 0.0
2017-Oct-22 03:58N 46°05' W 122°56'0 0.0
2017-Oct-22 03:07N 46°05' W 122°56'0 0.0
2017-Oct-22 02:49N 46°05' W 122°56'1 1.7
2017-Oct-22 02:30N 46°06' W 122°56'0 0.0
2017-Oct-22 02:00N 46°06' W 122°56'1 0.9
2017-Oct-22 01:28N 46°06' W 122°57'0 0.9
2017-Oct-22 01:01N 46°06' W 122°56'1 1.1
2017-Oct-22 00:30N 46°06' W 122°57'1 1.9
2017-Oct-22 00:01N 46°06' W 122°56'0 0.2
2017-Oct-21 23:31N 46°05' W 122°56'0 0.0
2017-Oct-21 23:01N 46°05' W 122°56'0 0.0
2017-Oct-21 22:30N 46°05' W 122°56'0 0.0
2017-Oct-21 21:54N 46°05' W 122°56'0 0.0
2017-Oct-21 21:18N 46°05' W 122°56'0 0.0
2017-Oct-21 21:00N 46°05' W 122°56'0 0.0
2017-Oct-21 20:09N 46°05' W 122°56'0 0.0
2017-Oct-21 19:57N 46°05' W 122°56'0 0.0
2017-Oct-21 19:30N 46°05' W 122°56'0 0.0
2017-Oct-21 18:54N 46°05' W 122°56'0 0.0
2017-Oct-21 18:30N 46°05' W 122°56'0 0.0
2017-Oct-21 18:00N 46°05' W 122°56'0 0.0
2017-Oct-21 17:30N 46°05' W 122°56'0 0.0
2017-Oct-21 17:00N 46°05' W 122°56'0 0.0
2017-Oct-21 16:30N 46°05' W 122°56'0 0.0
2017-Oct-21 16:00N 46°05' W 122°56'0 0.0
2017-Oct-21 15:30N 46°05' W 122°56'0 0.0
2017-Oct-21 14:54N 46°05' W 122°56'0 0.0
2017-Oct-21 13:45N 46°05' W 122°56'0 0.0
2017-Oct-21 13:30N 46°05' W 122°56'0 0.0
2017-Oct-21 13:00N 46°05' W 122°56'0 0.0
2017-Oct-21 12:30N 46°05' W 122°56'0 0.0
2017-Oct-21 11:57N 46°05' W 122°56'0 0.0
2017-Oct-21 11:30N 46°05' W 122°56'0 0.0
2017-Oct-21 10:48N 46°05' W 122°56'0 0.0
2017-Oct-21 10:27N 46°05' W 122°56'0 0.0
2017-Oct-21 09:51N 46°05' W 122°56'0 0.0
2017-Oct-21 09:21N 46°05' W 122°56'0 0.0
2017-Oct-21 08:57N 46°05' W 122°56'0 0.0
2017-Oct-21 08:18N 46°05' W 122°56'0 0.0
2017-Oct-21 08:00N 46°05' W 122°56'0 0.0
2017-Oct-21 07:24N 46°05' W 122°56'0 0.0
2017-Oct-21 06:57N 46°05' W 122°56'0 0.0
2017-Oct-21 06:24N 46°05' W 122°56'0 0.0
2017-Oct-21 06:00N 46°05' W 122°56'0 0.0
2017-Oct-21 05:30N 46°05' W 122°56'0 0.0
2017-Oct-21 04:57N 46°05' W 122°56'0 0.0
2017-Oct-21 04:30N 46°05' W 122°56'0 0.0
2017-Oct-21 04:00N 46°05' W 122°56'0 0.0
2017-Oct-21 03:27N 46°05' W 122°56'0 0.0
2017-Oct-21 03:00N 46°05' W 122°56'0 0.0
2017-Oct-21 02:30N 46°05' W 122°56'0 0.0
2017-Oct-21 01:54N 46°05' W 122°56'0 0.0
2017-Oct-21 01:27N 46°05' W 122°56'0 0.0
2017-Oct-21 01:00N 46°05' W 122°56'0 0.0
2017-Oct-21 00:30N 46°05' W 122°56'0 0.0
2017-Oct-20 23:15N 46°05' W 122°56'0 0.1
2017-Oct-20 23:00N 46°05' W 122°56'4 9.0
2017-Oct-20 22:31N 46°02' W 122°52'0 0.2
2017-Oct-20 22:00N 46°02' W 122°53'0 0.1
2017-Oct-20 21:30N 46°02' W 122°53'0 0.0
2017-Oct-20 21:00N 46°02' W 122°53'0 0.0
2017-Oct-20 20:30N 46°02' W 122°53'0 0.0
2017-Oct-20 20:01N 46°02' W 122°53'0 0.0
2017-Oct-20 19:26N 46°02' W 122°53'0 0.0
2017-Oct-20 19:00N 46°02' W 122°53'0 0.0
2017-Oct-20 18:30N 46°02' W 122°53'0 0.0
2017-Oct-20 18:00N 46°02' W 122°53'0 0.0
2017-Oct-20 17:30N 46°02' W 122°53'0 0.1
2017-Oct-20 17:00N 46°02' W 122°53'0 0.0
2017-Oct-20 16:30N 46°02' W 122°53'0 0.0
2017-Oct-20 16:00N 46°02' W 122°53'0 0.0
2017-Oct-20 15:30N 46°02' W 122°53'0 0.0
2017-Oct-20 15:01N 46°02' W 122°53'0 0.0
2017-Oct-20 14:00N 46°02' W 122°53'3 5.9
2017-Oct-20 13:30N 45°59' W 122°51'0 0.8
2017-Oct-20 13:00N 45°59' W 122°50'0 0.0
2017-Oct-20 12:30N 45°59' W 122°50'1 2.4
2017-Oct-20 12:00N 45°60' W 122°51'1 1.4
2017-Oct-20 11:30N 46°01' W 122°51'0 0.1
2017-Oct-20 11:00N 46°01' W 122°51'0 0.2
2017-Oct-20 10:31N 46°01' W 122°51'0 0.4
2017-Oct-20 10:00N 46°01' W 122°52'1 2.4
2017-Oct-20 09:30N 46°02' W 122°53'0 0.0
2017-Oct-20 09:00N 46°02' W 122°53'0 0.1
2017-Oct-20 08:30N 46°02' W 122°53'0 0.0
2017-Oct-20 08:00N 46°02' W 122°53'0 0.0
2017-Oct-20 07:30N 46°02' W 122°53'0 0.0
2017-Oct-20 07:00N 46°02' W 122°53'0 0.0
2017-Oct-20 06:30N 46°02' W 122°53'0 0.0
2017-Oct-20 06:00N 46°02' W 122°53'0 0.0
2017-Oct-20 05:30N 46°02' W 122°53'0 0.0
2017-Oct-20 05:00N 46°02' W 122°53'0 0.1
2017-Oct-20 04:30N 46°02' W 122°53'0 0.0
2017-Oct-20 04:00N 46°02' W 122°53'0 0.1
2017-Oct-20 03:30N 46°02' W 122°53'0 0.1
2017-Oct-20 03:00N 46°02' W 122°53'2 4.1
2017-Oct-20 02:30N 46°04' W 122°53'3 6.3
2017-Oct-20 02:00N 46°06' W 122°56'0 0.0
2017-Oct-20 01:31N 46°06' W 122°56'1 2.4
2017-Oct-20 01:00N 46°06' W 122°58'1 2.3
2017-Oct-20 00:31N 46°06' W 122°57'4 7.5
2017-Oct-20 00:00N 46°03' W 122°53'1 2.8
2017-Oct-19 23:30N 46°02' W 122°53'0 0.2
2017-Oct-19 23:01N 46°02' W 122°53'1 1.3
2017-Oct-19 22:30N 46°02' W 122°53'4 6.8
2017-Oct-19 21:59N 46°05' W 122°55'1 1.9
2017-Oct-19 21:30N 46°06' W 122°56'0 0.8
2017-Oct-19 21:00N 46°06' W 122°56'0 0.4
2017-Oct-19 20:24N 46°05' W 122°56'0 0.0
2017-Oct-19 20:00N 46°05' W 122°56'0 0.0
2017-Oct-19 19:15N 46°05' W 122°56'0 0.0
2017-Oct-19 19:00N 46°05' W 122°56'0 0.0
2017-Oct-19 18:30N 46°05' W 122°56'0 0.0
2017-Oct-19 17:54N 46°05' W 122°56'0 0.0
2017-Oct-19 17:30N 46°05' W 122°56'0 0.0
2017-Oct-19 17:00N 46°05' W 122°56'0 0.0
2017-Oct-19 16:24N 46°05' W 122°56'0 0.0
2017-Oct-19 15:54N 46°05' W 122°56'0 0.0
2017-Oct-19 15:30N 46°05' W 122°56'0 0.0
2017-Oct-19 15:00N 46°05' W 122°56'0 0.0
2017-Oct-19 14:27N 46°05' W 122°56'0 0.0
2017-Oct-19 13:48N 46°05' W 122°56'0 0.0
2017-Oct-19 13:30N 46°05' W 122°56'0 0.0
2017-Oct-19 13:00N 46°05' W 122°56'0 0.0
2017-Oct-19 12:30N 46°05' W 122°56'0 0.0
2017-Oct-19 12:00N 46°05' W 122°56'0 0.0
2017-Oct-19 11:30N 46°05' W 122°56'0 0.0
2017-Oct-19 10:54N 46°05' W 122°56'0 0.0
2017-Oct-19 10:27N 46°05' W 122°56'0 0.0
2017-Oct-19 09:57N 46°05' W 122°56'0 0.0
2017-Oct-19 09:24N 46°05' W 122°56'0 0.0
2017-Oct-19 09:00N 46°05' W 122°56'0 0.0
2017-Oct-19 08:27N 46°05' W 122°56'0 0.0
2017-Oct-19 08:00N 46°05' W 122°56'0 0.0
2017-Oct-19 07:27N 46°05' W 122°56'0 0.0
2017-Oct-19 06:57N 46°05' W 122°56'0 0.0
2017-Oct-19 06:30N 46°05' W 122°56'0 0.0
2017-Oct-19 06:00N 46°05' W 122°56'0 0.0
2017-Oct-19 05:30N 46°05' W 122°56'0 0.0
2017-Oct-19 04:45N 46°05' W 122°56'0 0.0
2017-Oct-19 04:30N 46°05' W 122°56'2 4.9
2017-Oct-19 04:01N 46°04' W 122°53'2 4.8
2017-Oct-19 03:31N 46°05' W 122°56'0 0.0
2017-Oct-19 03:00N 46°05' W 122°56'0 0.0
2017-Oct-19 02:30N 46°05' W 122°56'0 0.0
2017-Oct-19 01:59N 46°05' W 122°56'0 0.0
2017-Oct-19 01:30N 46°05' W 122°56'0 0.0
2017-Oct-19 01:00N 46°05' W 122°56'0 0.0
2017-Oct-19 00:31N 46°05' W 122°56'0 0.0
2017-Oct-19 00:00N 46°05' W 122°56'1 2.2
2017-Oct-18 23:30N 46°06' W 122°57'0 0.1
2017-Oct-18 23:00N 46°06' W 122°57'1 2.8
2017-Oct-18 22:31N 46°07' W 122°59'0 0.3
2017-Oct-18 22:01N 46°07' W 122°59'2 4.0
2017-Oct-18 21:26N 46°06' W 122°56'0 0.6
2017-Oct-18 20:59N 46°05' W 122°56'0 0.0
2017-Oct-18 20:29N 46°05' W 122°56'0 0.0
2017-Oct-18 19:59N 46°05' W 122°56'0 0.0
2017-Oct-18 19:26N 46°05' W 122°56'0 0.0
2017-Oct-18 18:59N 46°05' W 122°56'0 0.0
2017-Oct-18 18:29N 46°05' W 122°56'0 0.0
2017-Oct-18 17:59N 46°05' W 122°56'0 0.0
2017-Oct-18 17:29N 46°05' W 122°56'0 0.0
2017-Oct-18 16:59N 46°05' W 122°56'0 0.0
2017-Oct-18 16:23N 46°05' W 122°56'0 0.0
2017-Oct-18 15:50N 46°05' W 122°56'0 0.0
2017-Oct-18 15:23N 46°05' W 122°56'0 0.0
2017-Oct-18 14:59N 46°05' W 122°56'0 0.0
2017-Oct-18 13:56N 46°05' W 122°56'0 0.0
2017-Oct-18 13:30N 46°05' W 122°56'6 7.8
2017-Oct-18 12:45N 46°09' W 123°03'2 9.3
2017-Oct-18 12:30N 46°10' W 123°05'4 8.8
2017-Oct-18 12:00N 46°11' W 123°12'5 9.5
2017-Oct-18 11:30N 46°09' W 123°18'5 9.1
2017-Oct-18 11:00N 46°10' W 123°24'4 8.9
2017-Oct-18 10:31N 46°14' W 123°26'4 8.2
2017-Oct-18 10:01N 46°16' W 123°31'510.3
2017-Oct-18 09:31N 46°16' W 123°38'710.0
2017-Oct-18 08:48N 46°13' W 123°47'3 6.7
2017-Oct-18 08:18N 46°11' W 123°52'0 0.3
2017-Oct-18 08:00N 46°11' W 123°52'0 0.1
2017-Oct-18 07:30N 46°11' W 123°52'0 0.1
2017-Oct-18 07:00N 46°11' W 123°52'0 0.0
2017-Oct-18 06:31N 46°11' W 123°52'1 1.8
2017-Oct-18 05:51N 46°12' W 123°50'310.0
2017-Oct-18 05:31N 46°13' W 123°46'510.8
2017-Oct-18 05:01N 46°16' W 123°39'611.9
2017-Oct-18 04:30N 46°16' W 123°30'611.0
2017-Oct-18 04:00N 46°12' W 123°26'612.5
2017-Oct-18 03:30N 46°09' W 123°18'715.0
2017-Oct-18 03:01N 46°11' W 123°08'815.1
2017-Oct-18 02:30N 46°07' W 122°59'612.9
2017-Oct-18 02:01N 46°02' W 122°53'4 7.0
2017-Oct-18 01:30N 45°59' W 122°50'0 0.6
2017-Oct-18 01:00N 45°59' W 122°50'2 3.2
2017-Oct-18 00:30N 46°01' W 122°51'0 0.3
2017-Oct-18 00:01N 46°01' W 122°51'5 9.8
2017-Oct-17 23:30N 46°05' W 122°55'1 1.8
2017-Oct-17 23:00N 46°05' W 122°56'0 0.0
2017-Oct-17 22:30N 46°05' W 122°56'0 0.0
2017-Oct-17 22:00N 46°05' W 122°56'0 0.0
2017-Oct-17 21:30N 46°05' W 122°56'0 0.0
2017-Oct-17 21:00N 46°05' W 122°56'0 0.0
2017-Oct-17 20:30N 46°05' W 122°56'1 2.7
2017-Oct-17 20:00N 46°06' W 122°57'1 1.5
2017-Oct-17 19:30N 46°06' W 122°56'0 0.4
2017-Oct-17 19:00N 46°06' W 122°57'2 3.0
2017-Oct-17 18:30N 46°07' W 122°58'0 0.4
2017-Oct-17 18:01N 46°06' W 122°58'2 3.7
2017-Oct-17 17:30N 46°05' W 122°56'0 0.0
2017-Oct-17 17:00N 46°05' W 122°56'0 0.0
2017-Oct-17 16:31N 46°05' W 122°56'0 0.0
2017-Oct-17 16:00N 46°05' W 122°56'0 0.0
2017-Oct-17 15:31N 46°05' W 122°56'0 0.0
2017-Oct-17 15:00N 46°05' W 122°56'0 0.0
2017-Oct-17 14:30N 46°05' W 122°56'0 0.0
2017-Oct-17 14:00N 46°05' W 122°56'0 0.0
2017-Oct-17 13:30N 46°05' W 122°56'0 0.0
2017-Oct-17 13:00N 46°05' W 122°56'0 0.0
2017-Oct-17 12:30N 46°05' W 122°56'0 0.0
2017-Oct-17 12:00N 46°05' W 122°56'0 0.0
2017-Oct-17 11:31N 46°05' W 122°56'0 0.0
2017-Oct-17 11:00N 46°05' W 122°56'0 0.0
2017-Oct-17 10:29N 46°05' W 122°56'0 0.0
2017-Oct-17 10:00N 46°05' W 122°56'0 0.0
2017-Oct-17 09:30N 46°05' W 122°56'0 0.0
2017-Oct-17 09:00N 46°05' W 122°56'0 0.0
2017-Oct-17 08:31N 46°05' W 122°56'0 0.0
2017-Oct-17 08:00N 46°05' W 122°56'0 0.0
2017-Oct-17 07:30N 46°05' W 122°56'0 0.0
2017-Oct-17 07:01N 46°05' W 122°56'0 0.0
2017-Oct-17 06:30N 46°05' W 122°56'0 0.0
2017-Oct-17 06:01N 46°05' W 122°56'0 0.0
2017-Oct-17 05:30N 46°05' W 122°56'0 0.0
2017-Oct-17 05:00N 46°05' W 122°56'0 0.0
2017-Oct-17 04:30N 46°05' W 122°56'0 0.0
2017-Oct-17 04:00N 46°05' W 122°56'0 0.0
2017-Oct-17 03:30N 46°05' W 122°56'0 0.0
2017-Oct-17 03:01N 46°05' W 122°56'0 0.0
2017-Oct-17 02:30N 46°05' W 122°56'0 0.0
2017-Oct-17 02:01N 46°05' W 122°56'0 0.0
2017-Oct-17 01:30N 46°05' W 122°56'0 0.0
2017-Oct-17 01:00N 46°05' W 122°56'0 0.0
2017-Oct-17 00:30N 46°05' W 122°56'0 0.0
2017-Oct-17 00:01N 46°05' W 122°56'0 0.0
2017-Oct-16 23:31N 46°05' W 122°56'0 0.0
2017-Oct-16 23:00N 46°05' W 122°56'0 0.0
2017-Oct-16 22:30N 46°05' W 122°56'0 0.0
2017-Oct-16 22:00N 46°05' W 122°56'0 0.0
2017-Oct-16 21:30N 46°05' W 122°56'0 0.0
2017-Oct-16 21:00N 46°05' W 122°56'0 0.0
2017-Oct-16 20:30N 46°05' W 122°56'0 0.0
2017-Oct-16 20:00N 46°05' W 122°56'0 0.0
2017-Oct-16 19:30N 46°05' W 122°56'0 0.0
2017-Oct-16 19:00N 46°05' W 122°56'0 0.0
2017-Oct-16 18:31N 46°05' W 122°56'0 0.0
2017-Oct-16 18:01N 46°05' W 122°56'0 0.0
2017-Oct-16 17:30N 46°05' W 122°56'0 0.0
2017-Oct-16 17:01N 46°05' W 122°56'0 0.0
2017-Oct-16 16:31N 46°05' W 122°56'0 0.0
2017-Oct-16 16:00N 46°05' W 122°56'0 0.0
2017-Oct-16 15:30N 46°05' W 122°56'0 0.0
2017-Oct-16 15:01N 46°05' W 122°56'0 0.0
2017-Oct-16 14:30N 46°05' W 122°56'0 0.0
2017-Oct-16 13:30N 46°05' W 122°56'0 0.0
2017-Oct-16 13:00N 46°05' W 122°56'0 0.0
2017-Oct-16 12:30N 46°05' W 122°56'0 0.0
2017-Oct-16 12:00N 46°05' W 122°56'0 0.0
2017-Oct-16 11:30N 46°05' W 122°56'0 0.0
2017-Oct-16 11:01N 46°05' W 122°56'0 0.0
2017-Oct-16 10:30N 46°05' W 122°56'0 0.0
2017-Oct-16 10:00N 46°05' W 122°56'0 0.0
2017-Oct-16 09:31N 46°05' W 122°56'0 0.0
2017-Oct-16 09:00N 46°05' W 122°56'0 0.0
2017-Oct-16 08:30N 46°05' W 122°56'0 0.0
2017-Oct-16 08:00N 46°05' W 122°56'0 0.0
2017-Oct-16 07:22N 46°05' W 122°56'0 0.0
2017-Oct-16 07:00N 46°05' W 122°56'0 0.0
2017-Oct-16 06:30N 46°05' W 122°56'0 0.0
2017-Oct-16 06:00N 46°05' W 122°56'0 0.0
2017-Oct-16 05:30N 46°05' W 122°56'0 0.0
2017-Oct-16 05:00N 46°05' W 122°56'0 0.0
2017-Oct-16 04:30N 46°05' W 122°56'0 0.0
2017-Oct-16 04:00N 46°05' W 122°56'0 0.0
2017-Oct-16 03:30N 46°05' W 122°56'0 0.0
2017-Oct-16 03:00N 46°05' W 122°56'0 0.3
2017-Oct-16 02:31N 46°06' W 122°56'0 0.7
2017-Oct-16 02:01N 46°06' W 122°56'0 0.8
2017-Oct-16 01:30N 46°06' W 122°57'1 1.6
2017-Oct-16 01:00N 46°06' W 122°58'2 3.1
2017-Oct-16 00:30N 46°05' W 122°56'0 0.0
2017-Oct-16 00:00N 46°05' W 122°56'0 0.0
2017-Oct-15 23:30N 46°05' W 122°56'0 0.0
2017-Oct-15 23:00N 46°05' W 122°56'1 2.9
2017-Oct-15 22:30N 46°06' W 122°58'0 0.3
2017-Oct-15 22:00N 46°06' W 122°58'2 3.3
2017-Oct-15 21:30N 46°05' W 122°56'0 0.0
2017-Oct-15 21:01N 46°05' W 122°56'0 0.0
2017-Oct-15 20:30N 46°05' W 122°56'1 2.7
2017-Oct-15 20:00N 46°06' W 122°57'0 0.3
2017-Oct-15 19:24N 46°06' W 122°58'1 3.3
2017-Oct-15 18:58N 46°05' W 122°56'0 0.0
2017-Oct-15 18:16N 46°05' W 122°56'0 0.0
2017-Oct-15 17:58N 46°05' W 122°56'0 0.0
2017-Oct-15 17:28N 46°05' W 122°56'0 0.0
2017-Oct-15 16:58N 46°05' W 122°56'0 0.0
2017-Oct-15 16:28N 46°05' W 122°56'0 0.0
2017-Oct-15 15:55N 46°05' W 122°56'0 0.0
2017-Oct-15 15:28N 46°05' W 122°56'0 0.0
2017-Oct-15 14:58N 46°05' W 122°56'0 0.0
2017-Oct-15 13:43N 46°05' W 122°56'0 0.0
2017-Oct-15 13:28N 46°05' W 122°56'0 0.0
2017-Oct-15 12:58N 46°05' W 122°56'0 0.0
2017-Oct-15 12:28N 46°05' W 122°56'0 0.0
2017-Oct-15 11:58N 46°05' W 122°56'0 0.0
2017-Oct-15 11:22N 46°05' W 122°56'0 0.0
2017-Oct-15 10:58N 46°05' W 122°56'0 0.0
2017-Oct-15 10:22N 46°05' W 122°56'0 0.0
2017-Oct-15 09:52N 46°05' W 122°56'0 0.0
2017-Oct-15 09:28N 46°05' W 122°56'0 0.0
2017-Oct-15 08:52N 46°05' W 122°56'0 0.0
2017-Oct-15 08:28N 46°05' W 122°56'0 0.0
2017-Oct-15 07:49N 46°05' W 122°56'0 0.0
2017-Oct-15 07:25N 46°05' W 122°56'0 0.0
2017-Oct-15 06:58N 46°05' W 122°56'0 0.0
2017-Oct-15 06:28N 46°05' W 122°56'0 0.0
2017-Oct-15 05:28N 46°05' W 122°56'0 0.0
2017-Oct-15 04:58N 46°05' W 122°56'0 0.0
2017-Oct-15 04:31N 46°05' W 122°56'0 0.0
2017-Oct-15 03:55N 46°05' W 122°56'0 0.0
2017-Oct-15 03:28N 46°05' W 122°56'0 0.0
2017-Oct-15 02:58N 46°05' W 122°56'0 0.0
2017-Oct-15 02:28N 46°05' W 122°56'0 0.0
2017-Oct-15 01:40N 46°05' W 122°56'0 0.0
2017-Oct-15 01:19N 46°05' W 122°56'0 0.0
2017-Oct-15 00:58N 46°05' W 122°56'0 0.0
2017-Oct-15 00:22N 46°05' W 122°56'0 0.0
2017-Oct-14 23:58N 46°05' W 122°56'0 0.0
2017-Oct-14 23:25N 46°05' W 122°56'0 0.0
2017-Oct-14 22:49N 46°05' W 122°56'0 0.0
2017-Oct-14 22:31N 46°05' W 122°56'0 0.0
2017-Oct-14 21:58N 46°05' W 122°56'0 0.0
2017-Oct-14 21:19N 46°05' W 122°56'0 0.0
2017-Oct-14 20:58N 46°05' W 122°56'0 0.0
2017-Oct-14 20:25N 46°05' W 122°56'0 0.0
2017-Oct-14 19:58N 46°05' W 122°56'0 0.0
2017-Oct-14 19:28N 46°05' W 122°56'0 0.0
2017-Oct-14 18:58N 46°05' W 122°56'0 0.0
2017-Oct-14 18:28N 46°05' W 122°56'0 0.0
2017-Oct-14 17:58N 46°05' W 122°56'0 0.0
2017-Oct-14 17:28N 46°05' W 122°56'0 0.0
2017-Oct-14 16:58N 46°05' W 122°56'0 0.0
2017-Oct-14 16:28N 46°05' W 122°56'0 0.0
2017-Oct-14 16:01N 46°05' W 122°56'0 0.0
2017-Oct-14 15:31N 46°05' W 122°56'0 0.0
2017-Oct-14 15:01N 46°05' W 122°56'0 0.0
2017-Oct-14 14:27N 46°05' W 122°56'1 1.5
2017-Oct-14 14:00N 46°06' W 122°56'0 0.6
2017-Oct-14 13:30N 46°06' W 122°57'2 4.2
2017-Oct-14 13:00N 46°07' W 122°59'3 5.3
2017-Oct-14 12:30N 46°06' W 122°56'0 0.7
2017-Oct-14 11:58N 46°05' W 122°56'0 0.0
2017-Oct-14 11:10N 46°05' W 122°56'0 0.0
2017-Oct-14 10:58N 46°05' W 122°56'0 0.0
2017-Oct-14 10:28N 46°05' W 122°56'0 0.0
2017-Oct-14 09:58N 46°05' W 122°56'0 0.0
2017-Oct-14 09:28N 46°05' W 122°56'0 0.0
2017-Oct-14 08:52N 46°05' W 122°56'0 0.0
2017-Oct-14 08:28N 46°05' W 122°56'0 0.0
2017-Oct-14 07:58N 46°05' W 122°56'0 0.0
2017-Oct-14 07:25N 46°05' W 122°56'0 0.0
2017-Oct-14 06:52N 46°05' W 122°56'0 0.0
2017-Oct-14 06:28N 46°05' W 122°56'0 0.0
2017-Oct-14 05:58N 46°05' W 122°56'0 0.0
2017-Oct-14 05:28N 46°05' W 122°56'0 0.0
2017-Oct-14 04:58N 46°05' W 122°56'0 0.0
2017-Oct-14 04:25N 46°05' W 122°56'0 0.0
2017-Oct-14 03:58N 46°05' W 122°56'0 0.0
2017-Oct-14 03:10N 46°05' W 122°56'0 0.0
2017-Oct-14 02:55N 46°05' W 122°56'0 0.0
2017-Oct-14 02:28N 46°05' W 122°56'0 0.0
2017-Oct-14 01:46N 46°05' W 122°56'0 0.0
2017-Oct-14 01:25N 46°05' W 122°56'0 0.0
2017-Oct-14 00:52N 46°05' W 122°56'0 0.0
2017-Oct-14 00:28N 46°05' W 122°56'0 0.0
2017-Oct-13 23:58N 46°05' W 122°56'0 0.0
2017-Oct-13 23:28N 46°05' W 122°56'0 0.0
2017-Oct-13 22:58N 46°05' W 122°56'0 0.0
2017-Oct-13 22:28N 46°05' W 122°56'0 0.0
2017-Oct-13 21:55N 46°05' W 122°56'0 0.0
2017-Oct-13 21:13N 46°05' W 122°56'0 0.0
2017-Oct-13 20:58N 46°05' W 122°56'0 0.0
2017-Oct-13 20:30N 46°05' W 122°56'0 0.8
2017-Oct-13 20:00N 46°05' W 122°55'3 5.7
2017-Oct-13 19:30N 46°03' W 122°53'4 8.8
2017-Oct-13 19:01N 45°59' W 122°50'0 0.2
2017-Oct-13 18:21N 45°59' W 122°50'0 0.1
2017-Oct-13 18:00N 45°59' W 122°50'5 5.8
2017-Oct-13 17:13N 46°03' W 122°53'2 9.3
2017-Oct-13 17:00N 46°05' W 122°54'1 2.6
2017-Oct-13 16:28N 46°05' W 122°56'0 0.0
2017-Oct-13 15:58N 46°05' W 122°56'0 0.0
2017-Oct-13 15:25N 46°05' W 122°56'0 0.0
2017-Oct-13 14:55N 46°05' W 122°56'0 0.0
2017-Oct-13 14:28N 46°05' W 122°56'0 0.0
2017-Oct-13 13:46N 46°05' W 122°56'1 2.0
2017-Oct-13 13:30N 46°06' W 122°56'0 0.1
2017-Oct-13 12:50N 46°06' W 122°56'1 1.8
2017-Oct-13 12:31N 46°06' W 122°57'1 1.8
2017-Oct-13 11:55N 46°05' W 122°56'0 0.0
2017-Oct-13 11:25N 46°05' W 122°56'0 0.0
2017-Oct-13 10:58N 46°05' W 122°56'0 0.0
2017-Oct-13 10:28N 46°05' W 122°56'0 0.0
2017-Oct-13 09:49N 46°05' W 122°56'0 0.0
2017-Oct-13 09:01N 46°05' W 122°56'0 0.0
2017-Oct-13 08:58N 46°05' W 122°56'0 0.0
2017-Oct-13 08:13N 46°05' W 122°56'0 0.0
2017-Oct-13 07:49N 46°05' W 122°56'0 0.0
2017-Oct-13 07:28N 46°05' W 122°56'0 0.0
2017-Oct-13 06:58N 46°05' W 122°56'0 0.0
2017-Oct-13 06:28N 46°05' W 122°56'  

Dump ship's entire track history